Portada
METAR-TAF:

METAR-TAF

Aeroports :

Amman-Queen Alia, Jordània

latitud: 31-40N, longitud: 035-58E, altitud: 721 m

Observació

L'informe es va fer fa 18 minuts, a les 05:00 UTC
Vent calma
Temperatura 23°C
Humitat 41%
Pressió 1010 hPa
Visibilitat: 6000 m

METAR: OJAI 010500Z 00000KT 6000 NSC 23/09 Q1010 NOSIG

Hora: 08:18 (05:18 UTC)

Pronòstic

L'informe es va fer fa 6 hores i 3 minuts, a les 23:15 UTC
Pronòstic vàlid del 01 a les 00 UTC al 02 a les 06 UTC
Vent 5 kt del Nord-Oest
Visibilitat: 7000 m
Probabilitat 30% :
Temporalment
l' 01 a les 10 UTC al 01 a les 17 UTC
Vent 15 kt del Oest/Nord-Oest
Visibilitat: 5000 m
torb alta de pols

TAF: OJAI 312315Z 0100/0206 31005KT 7000 NSC PROB30 TEMPO 0110/0117 29015KT 5000 BLDU

Observacions i pronòstics meteorològics de més de 4000 aeroports (METAR i TAF).

Les estacions disponibles són els punts grocs i vermells al mapa.

Posi el ratolí al punt desitjat per veure el nom de l'estació.

Feu clic per veure les observacions i els pronòstics meteorològics.

Per canviar el mapa: feu clic els botons verds amb una creu de color negre per apropar; al botó verd amb un guió per allunyar la imatge; o en les fletxes verdes per a mapes adjacents.


METAR-TAF: